TAY1ST EBLG-EGSS
Flight info
| Callsign | TAY1ST |
|---|---|
| Flight time | 0h 45m |
| Altitude | 28000 |
| Route | BUB M624 NIK/N0319F180 L179 SASKI L608 SUMUM Y6 TOSVA |
| Aircraft | B738/M-SDE2E3FGHIRWXY/LB1 |
Departure
| Time | 2026-04-21 14:03 |
|---|---|
| Airport | Liège Airport (EBLG) |
Arrival
| Time | 2026-04-21 14:49 |
|---|---|
| Airport | London Stansted Airport (EGSS) |
| Time | Latitude | Longitude | Altitude | Speed | Heading |
|---|---|---|---|---|---|
| 2026-04-21 13:56 | 50.63218 | 5.44104 | 638 ft | 0 kts | 135° |
| 2026-04-21 13:59 | 50.63219 | 5.44102 | 638 ft | 2 kts | 135° |
| 2026-04-21 13:59 | 50.63238 | 5.44075 | 641 ft | 4 kts | 145° |
| 2026-04-21 14:00 | 50.63261 | 5.44056 | 644 ft | 4 kts | 166° |
| 2026-04-21 14:00 | 50.63285 | 5.44056 | 641 ft | 4 kts | 216° |
| 2026-04-21 14:00 | 50.63289 | 5.44061 | 638 ft | 0 kts | 225° |
| 2026-04-21 14:02 | 50.63277 | 5.44041 | 641 ft | 7 kts | 225° |
| 2026-04-21 14:02 | 50.63214 | 5.43941 | 638 ft | 19 kts | 226° |
| 2026-04-21 14:03 | 50.63424 | 5.43924 | 640 ft | 27 kts | 27° |
| 2026-04-21 14:03 | 50.63592 | 5.44174 | 626 ft | 54 kts | 45° |
| 2026-04-21 14:03 | 50.64124 | 5.45018 | 629 ft | 157 kts | 44° |
| 2026-04-21 14:03 | 50.64977 | 5.46422 | 1473 ft | 195 kts | 47° |
| 2026-04-21 14:04 | 50.65948 | 5.48032 | 2735 ft | 210 kts | 46° |
| 2026-04-21 14:04 | 50.66960 | 5.49650 | 4215 ft | 206 kts | 46° |
| 2026-04-21 14:04 | 50.67996 | 5.51259 | 5279 ft | 212 kts | 46° |
| 2026-04-21 14:04 | 50.69071 | 5.52929 | 6265 ft | 221 kts | 46° |
| 2026-04-21 14:05 | 50.70149 | 5.54618 | 7362 ft | 222 kts | 47° |
| 2026-04-21 14:05 | 50.71279 | 5.56285 | 8428 ft | 228 kts | 37° |
| 2026-04-21 14:05 | 50.72808 | 5.57100 | 9378 ft | 242 kts | 6° |
| 2026-04-21 14:05 | 50.74484 | 5.56567 | 10404 ft | 253 kts | 337° |
| 2026-04-21 14:06 | 50.75793 | 5.54654 | 11354 ft | 267 kts | 302° |
| 2026-04-21 14:06 | 50.76410 | 5.51857 | 12312 ft | 273 kts | 287° |
| 2026-04-21 14:06 | 50.76891 | 5.48909 | 13222 ft | 280 kts | 287° |
| 2026-04-21 14:06 | 50.77392 | 5.45911 | 14141 ft | 285 kts | 287° |
| 2026-04-21 14:07 | 50.77910 | 5.42874 | 15042 ft | 287 kts | 287° |
| 2026-04-21 14:07 | 50.78383 | 5.39751 | 15549 ft | 309 kts | 285° |
| 2026-04-21 14:07 | 50.78873 | 5.36278 | 15779 ft | 337 kts | 284° |
| 2026-04-21 14:07 | 50.79395 | 5.32519 | 16106 ft | 360 kts | 284° |
| 2026-04-21 14:08 | 50.79938 | 5.28614 | 16876 ft | 367 kts | 284° |
| 2026-04-21 14:08 | 50.80492 | 5.24661 | 17846 ft | 368 kts | 284° |
| 2026-04-21 14:08 | 50.81051 | 5.20699 | 18755 ft | 371 kts | 285° |
| 2026-04-21 14:08 | 50.81617 | 5.16695 | 19537 ft | 374 kts | 285° |
| 2026-04-21 14:09 | 50.82438 | 5.12797 | 20344 ft | 371 kts | 300° |
| 2026-04-21 14:09 | 50.83720 | 5.09253 | 21204 ft | 372 kts | 303° |
| 2026-04-21 14:09 | 50.85025 | 5.05775 | 21954 ft | 375 kts | 303° |
| 2026-04-21 14:09 | 50.86367 | 5.02208 | 22718 ft | 378 kts | 303° |
| 2026-04-21 14:10 | 50.87714 | 4.98605 | 23457 ft | 382 kts | 303° |
| 2026-04-21 14:10 | 50.89057 | 4.94967 | 24146 ft | 384 kts | 303° |
| 2026-04-21 14:10 | 50.90401 | 4.91298 | 24791 ft | 386 kts | 302° |
| 2026-04-21 14:10 | 50.91748 | 4.87605 | 25367 ft | 389 kts | 302° |
| 2026-04-21 14:11 | 50.93104 | 4.83868 | 25936 ft | 393 kts | 302° |
| 2026-04-21 14:11 | 50.94469 | 4.80096 | 26525 ft | 395 kts | 302° |
| 2026-04-21 14:11 | 50.95838 | 4.76306 | 27143 ft | 396 kts | 302° |
| 2026-04-21 14:11 | 50.97198 | 4.72533 | 27708 ft | 399 kts | 301° |
| 2026-04-21 14:12 | 50.98589 | 4.68668 | 28364 ft | 397 kts | 301° |
| 2026-04-21 14:12 | 50.99927 | 4.64943 | 29305 ft | 390 kts | 301° |
| 2026-04-21 14:12 | 51.01267 | 4.61211 | 30092 ft | 387 kts | 301° |
| 2026-04-21 14:12 | 51.02602 | 4.57486 | 30666 ft | 387 kts | 301° |
| 2026-04-21 14:13 | 51.03932 | 4.53774 | 31199 ft | 386 kts | 301° |
| 2026-04-21 14:13 | 51.05257 | 4.50067 | 31784 ft | 384 kts | 301° |
| 2026-04-21 14:13 | 51.06570 | 4.46388 | 32381 ft | 382 kts | 301° |
| 2026-04-21 14:13 | 51.07876 | 4.42725 | 32925 ft | 381 kts | 301° |
| 2026-04-21 14:14 | 51.09185 | 4.39049 | 33450 ft | 380 kts | 301° |
| 2026-04-21 14:14 | 51.10485 | 4.35392 | 33952 ft | 379 kts | 301° |
| 2026-04-21 14:14 | 51.11772 | 4.31766 | 34275 ft | 383 kts | 301° |
| 2026-04-21 14:15 | 51.14401 | 4.24348 | 34260 ft | 383 kts | 301° |
| 2026-04-21 14:15 | 51.16890 | 4.16947 | 34259 ft | 379 kts | 294° |
| 2026-04-21 14:16 | 51.18675 | 4.08990 | 34262 ft | 382 kts | 291° |
| 2026-04-21 14:16 | 51.20410 | 4.00960 | 34276 ft | 384 kts | 292° |
| 2026-04-21 14:17 | 51.22176 | 3.92972 | 34278 ft | 384 kts | 292° |
| 2026-04-21 14:17 | 51.23962 | 3.84918 | 34266 ft | 384 kts | 292° |
| 2026-04-21 14:18 | 51.25743 | 3.76876 | 34265 ft | 381 kts | 292° |
| 2026-04-21 14:18 | 51.27493 | 3.68947 | 34271 ft | 377 kts | 292° |
| 2026-04-21 14:19 | 51.29229 | 3.61050 | 34273 ft | 376 kts | 292° |
| 2026-04-21 14:19 | 51.30947 | 3.53206 | 34278 ft | 376 kts | 292° |
| 2026-04-21 14:20 | 51.32675 | 3.45287 | 34279 ft | 378 kts | 292° |
| 2026-04-21 14:20 | 51.34410 | 3.37311 | 34281 ft | 380 kts | 292° |
| 2026-04-21 14:21 | 51.36228 | 3.29358 | 34270 ft | 380 kts | 294° |
| 2026-04-21 14:21 | 51.38120 | 3.21548 | 34263 ft | 372 kts | 294° |
| 2026-04-21 14:21 | 51.39032 | 3.17736 | 34125 ft | 361 kts | 294° |
| 2026-04-21 14:22 | 51.39930 | 3.13962 | 33438 ft | 365 kts | 293° |
| 2026-04-21 14:22 | 51.40839 | 3.10126 | 32635 ft | 372 kts | 293° |
| 2026-04-21 14:22 | 51.41759 | 3.06226 | 31973 ft | 375 kts | 293° |
| 2026-04-21 14:22 | 51.42675 | 3.02321 | 31488 ft | 374 kts | 293° |
| 2026-04-21 14:23 | 51.43585 | 2.98431 | 31065 ft | 371 kts | 292° |
| 2026-04-21 14:23 | 51.44488 | 2.94570 | 30645 ft | 368 kts | 292° |
| 2026-04-21 14:23 | 51.45381 | 2.90740 | 30220 ft | 365 kts | 292° |
| 2026-04-21 14:23 | 51.46257 | 2.86983 | 29735 ft | 362 kts | 293° |
| 2026-04-21 14:24 | 51.47127 | 2.83241 | 29363 ft | 355 kts | 293° |
| 2026-04-21 14:24 | 51.47982 | 2.79558 | 28960 ft | 350 kts | 293° |
| 2026-04-21 14:24 | 51.48827 | 2.75917 | 28549 ft | 346 kts | 293° |
| 2026-04-21 14:24 | 51.49661 | 2.72315 | 28147 ft | 342 kts | 293° |
| 2026-04-21 14:25 | 51.50488 | 2.68743 | 27749 ft | 339 kts | 293° |
| 2026-04-21 14:25 | 51.51304 | 2.65210 | 27348 ft | 336 kts | 293° |
| 2026-04-21 14:25 | 51.52113 | 2.61698 | 26955 ft | 334 kts | 293° |
| 2026-04-21 14:25 | 51.52916 | 2.58214 | 26569 ft | 331 kts | 293° |
| 2026-04-21 14:26 | 51.53711 | 2.54753 | 26184 ft | 329 kts | 293° |
| 2026-04-21 14:26 | 51.54501 | 2.51310 | 25803 ft | 327 kts | 293° |
| 2026-04-21 14:26 | 51.55285 | 2.47876 | 25421 ft | 327 kts | 293° |
| 2026-04-21 14:26 | 51.56065 | 2.44429 | 25048 ft | 328 kts | 294° |
| 2026-04-21 14:27 | 51.56841 | 2.41015 | 24664 ft | 330 kts | 294° |
| 2026-04-21 14:27 | 51.57637 | 2.37523 | 24283 ft | 336 kts | 292° |
| 2026-04-21 14:27 | 51.58453 | 2.33938 | 23870 ft | 347 kts | 292° |
| 2026-04-21 14:27 | 51.59282 | 2.30289 | 23396 ft | 347 kts | 292° |
| 2026-04-21 14:28 | 51.60104 | 2.26662 | 22991 ft | 344 kts | 293° |
| 2026-04-21 14:28 | 51.60921 | 2.23075 | 22610 ft | 341 kts | 292° |
| 2026-04-21 14:28 | 51.61733 | 2.19484 | 22215 ft | 338 kts | 294° |
| 2026-04-21 14:28 | 51.62533 | 2.15974 | 21856 ft | 334 kts | 292° |
| 2026-04-21 14:29 | 51.63330 | 2.12449 | 21480 ft | 332 kts | 291° |
| 2026-04-21 14:29 | 51.63899 | 2.08861 | 21097 ft | 334 kts | 281° |
| 2026-04-21 14:29 | 51.64202 | 2.05154 | 20729 ft | 333 kts | 279° |
| 2026-04-21 14:29 | 51.64468 | 2.01437 | 20359 ft | 332 kts | 278° |
| 2026-04-21 14:30 | 51.64721 | 1.97755 | 19989 ft | 330 kts | 279° |
| 2026-04-21 14:30 | 51.64974 | 1.94087 | 19638 ft | 329 kts | 278° |
| 2026-04-21 14:30 | 51.65231 | 1.90443 | 19300 ft | 327 kts | 278° |
| 2026-04-21 14:30 | 51.65486 | 1.86817 | 18953 ft | 325 kts | 278° |
| 2026-04-21 14:31 | 51.65740 | 1.83246 | 18602 ft | 325 kts | 277° |
| 2026-04-21 14:31 | 51.66000 | 1.79635 | 18212 ft | 324 kts | 279° |
| 2026-04-21 14:31 | 51.66257 | 1.76036 | 17827 ft | 323 kts | 279° |
| 2026-04-21 14:31 | 51.66513 | 1.72451 | 17480 ft | 321 kts | 279° |
| 2026-04-21 14:32 | 51.66768 | 1.68881 | 17147 ft | 319 kts | 278° |
| 2026-04-21 14:32 | 51.67020 | 1.65326 | 16786 ft | 320 kts | 278° |
| 2026-04-21 14:32 | 51.67275 | 1.61757 | 16456 ft | 322 kts | 278° |
| 2026-04-21 14:32 | 51.67530 | 1.58153 | 16103 ft | 325 kts | 278° |
| 2026-04-21 14:33 | 51.67785 | 1.54513 | 15744 ft | 328 kts | 279° |
| 2026-04-21 14:33 | 51.68041 | 1.50860 | 15392 ft | 327 kts | 278° |
| 2026-04-21 14:33 | 51.68291 | 1.47265 | 15032 ft | 326 kts | 278° |
| 2026-04-21 14:33 | 51.68541 | 1.43639 | 14666 ft | 325 kts | 278° |
| 2026-04-21 14:34 | 51.68791 | 1.40026 | 14329 ft | 324 kts | 277° |
| 2026-04-21 14:34 | 51.69039 | 1.36418 | 13955 ft | 323 kts | 278° |
| 2026-04-21 14:34 | 51.69284 | 1.32823 | 13572 ft | 321 kts | 277° |
| 2026-04-21 14:34 | 51.69526 | 1.29263 | 13214 ft | 318 kts | 277° |
| 2026-04-21 14:35 | 51.69763 | 1.25767 | 12863 ft | 316 kts | 278° |
| 2026-04-21 14:35 | 51.70001 | 1.22229 | 12512 ft | 315 kts | 277° |
| 2026-04-21 14:35 | 51.70236 | 1.18736 | 12173 ft | 313 kts | 278° |
| 2026-04-21 14:35 | 51.70469 | 1.15261 | 11837 ft | 311 kts | 277° |
| 2026-04-21 14:36 | 51.70699 | 1.11802 | 11496 ft | 310 kts | 278° |
| 2026-04-21 14:36 | 51.70928 | 1.08359 | 11166 ft | 308 kts | 277° |
| 2026-04-21 14:36 | 51.71153 | 1.04935 | 10827 ft | 307 kts | 277° |
| 2026-04-21 14:36 | 51.71378 | 1.01515 | 10477 ft | 306 kts | 277° |
| 2026-04-21 14:37 | 51.71602 | 0.98094 | 10130 ft | 305 kts | 277° |
| 2026-04-21 14:37 | 51.71822 | 0.94711 | 9787 ft | 303 kts | 277° |
| 2026-04-21 14:37 | 51.72037 | 0.91383 | 9468 ft | 301 kts | 277° |
| 2026-04-21 14:37 | 51.72253 | 0.88031 | 9153 ft | 299 kts | 277° |
| 2026-04-21 14:38 | 51.72466 | 0.84702 | 8820 ft | 298 kts | 277° |
| 2026-04-21 14:38 | 51.72678 | 0.81394 | 8523 ft | 296 kts | 277° |
| 2026-04-21 14:38 | 51.72887 | 0.78109 | 8227 ft | 293 kts | 277° |
| 2026-04-21 14:38 | 51.73094 | 0.74851 | 7931 ft | 291 kts | 277° |
| 2026-04-21 14:39 | 51.73298 | 0.71609 | 7630 ft | 289 kts | 277° |
| 2026-04-21 14:39 | 51.73500 | 0.68395 | 7338 ft | 287 kts | 277° |
| 2026-04-21 14:39 | 51.73700 | 0.65199 | 7051 ft | 285 kts | 277° |
| 2026-04-21 14:39 | 51.73897 | 0.62021 | 6753 ft | 285 kts | 277° |
| 2026-04-21 14:40 | 51.74095 | 0.58834 | 6446 ft | 284 kts | 277° |
| 2026-04-21 14:40 | 51.74291 | 0.55669 | 6128 ft | 283 kts | 277° |
| 2026-04-21 14:40 | 51.74482 | 0.52548 | 5827 ft | 282 kts | 277° |
| 2026-04-21 14:40 | 51.74675 | 0.49406 | 5525 ft | 281 kts | 277° |
| 2026-04-21 14:41 | 51.74866 | 0.46266 | 5222 ft | 280 kts | 277° |
| 2026-04-21 14:41 | 51.75055 | 0.43144 | 4927 ft | 279 kts | 277° |
| 2026-04-21 14:41 | 51.75242 | 0.40039 | 4632 ft | 277 kts | 277° |
| 2026-04-21 14:41 | 51.75425 | 0.36991 | 4355 ft | 267 kts | 277° |
| 2026-04-21 14:42 | 51.75599 | 0.34059 | 4088 ft | 258 kts | 277° |
| 2026-04-21 14:42 | 51.75769 | 0.31202 | 3815 ft | 252 kts | 277° |
| 2026-04-21 14:42 | 51.75933 | 0.28430 | 3548 ft | 244 kts | 278° |
| 2026-04-21 14:42 | 51.76093 | 0.25726 | 3280 ft | 239 kts | 278° |
| 2026-04-21 14:43 | 51.76249 | 0.23093 | 3017 ft | 233 kts | 278° |
| 2026-04-21 14:43 | 51.76352 | 0.21378 | 2842 ft | 229 kts | 277° |
| 2026-04-21 14:43 | 51.76501 | 0.18837 | 2591 ft | 226 kts | 278° |
| 2026-04-21 14:43 | 51.76694 | 0.15510 | 2509 ft | 223 kts | 277° |
| 2026-04-21 14:44 | 51.76836 | 0.13041 | 2499 ft | 218 kts | 278° |
| 2026-04-21 14:44 | 51.76927 | 0.11444 | 2510 ft | 213 kts | 278° |
| 2026-04-21 14:44 | 51.77171 | 0.09172 | 2468 ft | 197 kts | 302° |
| 2026-04-21 14:44 | 51.78104 | 0.07854 | 2497 ft | 170 kts | 354° |
| 2026-04-21 14:45 | 51.79098 | 0.08260 | 2486 ft | 143 kts | 53° |
| 2026-04-21 14:45 | 51.79676 | 0.09539 | 2482 ft | 143 kts | 46° |
| 2026-04-21 14:45 | 51.80396 | 0.10639 | 2372 ft | 147 kts | 51° |
| 2026-04-21 14:45 | 51.81072 | 0.11851 | 2134 ft | 142 kts | 50° |
| 2026-04-21 14:46 | 51.81728 | 0.12992 | 2056 ft | 137 kts | 49° |
| 2026-04-21 14:46 | 51.82367 | 0.14073 | 1924 ft | 129 kts | 51° |
| 2026-04-21 14:46 | 51.82967 | 0.15123 | 1751 ft | 133 kts | 47° |
| 2026-04-21 14:46 | 51.83676 | 0.16154 | 1618 ft | 141 kts | 46° |
| 2026-04-21 14:47 | 51.84417 | 0.17261 | 1434 ft | 147 kts | 49° |
| 2026-04-21 14:47 | 51.85147 | 0.18400 | 1247 ft | 144 kts | 49° |
| 2026-04-21 14:47 | 51.85861 | 0.19483 | 1035 ft | 134 kts | 45° |
| 2026-04-21 14:47 | 51.86511 | 0.20472 | 797 ft | 124 kts | 49° |
| 2026-04-21 14:48 | 51.87138 | 0.21437 | 530 ft | 123 kts | 49° |
| 2026-04-21 14:48 | 51.87758 | 0.22365 | 364 ft | 120 kts | 46° |
| 2026-04-21 14:48 | 51.88326 | 0.23221 | 336 ft | 97 kts | 42° |
| 2026-04-21 14:48 | 51.88714 | 0.23799 | 341 ft | 55 kts | 43° |
| 2026-04-21 14:49 | 51.88852 | 0.24099 | 350 ft | 12 kts | 66° |
| 2026-04-21 14:49 | 51.88880 | 0.24227 | 345 ft | 13 kts | 72° |
| 2026-04-21 14:49 | 51.88906 | 0.24361 | 352 ft | 12 kts | 72° |
| 2026-04-21 14:49 | 51.88915 | 0.24505 | 354 ft | 0 kts | 86° |
| 2026-04-21 14:50 | 51.88915 | 0.24507 | 354 ft | 1 kts | 96° |
| 2026-04-21 14:50 | 51.88893 | 0.24536 | 351 ft | 7 kts | 137° |
| 2026-04-21 14:50 | 51.88850 | 0.24610 | 351 ft | 11 kts | 132° |
| 2026-04-21 14:50 | 51.88813 | 0.24685 | 361 ft | 1 kts | 165° |
| 2026-04-21 14:51 | 51.88773 | 0.24672 | 348 ft | 0 kts | 176° |
| 2026-04-21 14:51 | 51.88732 | 0.24612 | 352 ft | 12 kts | 223° |
| 2026-04-21 14:51 | 51.88667 | 0.24514 | 347 ft | 13 kts | 222° |
| 2026-04-21 14:51 | 51.88602 | 0.24416 | 348 ft | 13 kts | 223° |
| 2026-04-21 14:52 | 51.88529 | 0.24357 | 342 ft | 12 kts | 167° |
| 2026-04-21 14:52 | 51.88469 | 0.24430 | 349 ft | 7 kts | 167° |
| 2026-04-21 14:52 | 51.88429 | 0.24403 | 352 ft | 5 kts | 219° |
| 2026-04-21 14:52 | 51.88418 | 0.24387 | 352 ft | 0 kts | 221° |